Time;durP1;ratioP1;P1;durP2;ratioP2;P2;SDS_P1;SDS_P2;PMS_P1;PMS_P2;Temp;Humidity;BMP_temperature;BMP_pressure;BME280_temperature;BME280_humidity;BME280_pressure;Samples;Min_cycle;Max_cycle;Signal;HPM_P1;HPM_P2
2022/04/22 00:00:55;;;;;;;;;8.75;5.00;;;;;17.24;38.65;99750.09;5018833;28;45378;-49
2022/04/22 00:03:20;;;;;;;;;8.50;6.75;;;;;17.23;38.70;99754.81;5018310;28;45538;-52
2022/04/22 00:05:46;;;;;;;;;2.25;2.25;;;;;17.15;38.63;99747.91;5018314;28;45368;-48
2022/04/22 00:08:11;;;;;;;;;4.25;4.00;;;;;16.96;39.20;99717.13;5018476;28;45353;-50
2022/04/22 00:11:29;;;;;;;;;6.00;6.00;;;;;16.98;38.66;99719.63;5017042;28;45429;-50
2022/04/22 00:13:22;;;;;;;;;4.60;4.00;;;;;17.19;38.88;99746.22;5044960;28;45287;-50
2022/04/22 00:15:48;;;;;;;;;6.75;5.75;;;;;17.25;38.67;99749.00;5018126;28;45600;-51
2022/04/22 00:18:14;;;;;;;;;4.75;4.50;;;;;17.17;38.96;99756.78;5018217;28;45413;-48
2022/04/22 00:20:39;;;;;;;;;7.80;7.20;;;;;17.07;38.93;99726.28;5017777;28;45264;-48
2022/04/22 00:23:05;;;;;;;;;5.25;4.75;;;;;17.13;38.74;99755.66;5018831;28;45520;-52
2022/04/22 00:25:30;;;;;;;;;7.00;5.00;;;;;16.98;38.88;99742.66;5017808;28;45757;-49
2022/04/22 00:27:56;;;;;;;;;6.00;6.00;;;;;16.83;39.23;99713.00;5018359;28;45215;-48
2022/04/22 00:30:21;;;;;;;;;8.25;7.50;;;;;16.92;39.13;99727.13;5018141;28;45544;-48
2022/04/22 00:32:47;;;;;;;;;6.75;5.00;;;;;16.90;39.18;99735.72;5018380;28;45690;-51
2022/04/22 00:35:12;;;;;;;;;6.25;6.00;;;;;16.93;39.66;99737.09;5016605;28;45363;-53
2022/04/22 00:37:38;;;;;;;;;5.25;5.25;;;;;17.03;39.68;99745.41;5016712;28;45461;-50
2022/04/22 00:40:04;;;;;;;;;6.00;6.00;;;;;17.03;39.23;99747.38;5018242;28;45362;-48
2022/04/22 00:42:30;;;;;;;;;7.20;7.20;;;;;16.96;39.30;99744.03;5018082;28;45833;-50
2022/04/22 00:44:56;;;;;;;;;5.75;5.75;;;;;16.72;39.57;99705.81;5017608;28;45451;-48
2022/04/22 00:47:22;;;;;;;;;7.00;6.00;;;;;16.93;39.18;99735.16;5018030;28;45347;-48
2022/04/22 00:49:47;;;;;;;;;6.50;5.50;;;;;16.88;39.55;99737.94;5016739;28;45353;-50
2022/04/22 00:52:14;;;;;;;;;7.25;6.75;;;;;16.77;39.51;99739.06;5018283;28;45351;-47
2022/04/22 00:54:39;;;;;;;;;7.00;7.00;;;;;16.70;39.71;99741.28;5016007;28;45580;-49
2022/04/22 00:57:05;;;;;;;;;8.00;6.00;;;;;16.62;40.13;99745.44;5017535;28;45410;-49
2022/04/22 00:59:31;;;;;;;;;7.75;7.00;;;;;16.56;39.88;99728.00;5017730;28;45342;-48
2022/04/22 01:01:57;;;;;;;;;8.40;7.00;;;;;16.56;39.94;99744.59;5016835;28;45399;-52
2022/04/22 01:09:51;;;;;;;;;5.00;5.00;;;;;16.61;39.89;99727.16;5017451;28;45370;-51
2022/04/22 01:12:17;;;;;;;;;5.80;5.80;;;;;16.63;39.77;99722.16;5016170;28;45479;-49
2022/04/22 01:14:43;;;;;;;;;6.80;5.80;;;;;16.52;40.19;99726.88;5017321;28;46628;-47
2022/04/22 01:17:09;;;;;;;;;7.00;7.00;;;;;16.30;40.10;99685.59;5017213;28;45422;-50
2022/04/22 01:19:34;;;;;;;;;7.00;5.75;;;;;16.51;39.80;99712.22;5015727;28;45436;-49
2022/04/22 01:22:00;;;;;;;;;6.00;6.00;;;;;16.57;40.17;99720.50;5017394;28;45420;-49
2022/04/22 01:24:27;;;;;;;;;8.00;7.00;;;;;16.13;40.30;99665.38;5017124;28;46033;-49
2022/04/22 01:26:54;;;;;;;;;6.00;5.60;;;;;16.44;40.13;99714.41;5015390;28;45455;-49
2022/04/22 01:29:19;;;;;;;;;6.80;6.80;;;;;16.18;40.10;99663.72;5016126;28;45336;-49
2022/04/22 01:31:45;;;;;;;;;8.25;7.00;;;;;16.47;40.28;99708.31;5009293;28;45294;-50
2022/04/22 01:34:10;;;;;;;;;5.50;5.50;;;;;16.50;40.44;99706.94;5014204;28;46530;-48
2022/04/22 01:36:36;;;;;;;;;6.25;6.00;;;;;16.45;40.37;99701.41;5012635;28;45370;-48
2022/04/22 01:39:01;;;;;;;;;6.50;6.00;;;;;16.38;40.39;99696.97;5015956;28;45386;-52
2022/04/22 01:41:27;;;;;;;;;9.00;6.00;;;;;16.38;40.25;99699.72;5002544;28;45392;-49
2022/04/22 01:43:53;;;;;;;;;6.50;6.50;;;;;16.46;40.71;99692.81;5016414;28;45945;-49
2022/04/22 01:46:18;;;;;;;;;6.00;5.00;;;;;16.05;40.99;99620.81;5016364;28;45315;-54
2022/04/22 01:48:44;;;;;;;;;6.50;6.25;;;;;16.43;40.64;99673.16;5016426;28;45434;-48
2022/04/22 01:51:09;;;;;;;;;8.50;7.00;;;;;16.30;40.67;99657.91;5016732;28;45396;-49
2022/04/22 01:53:35;;;;;;;;;8.25;7.50;;;;;16.44;40.87;99695.00;5016428;28;45607;-51
2022/04/22 01:56:00;;;;;;;;;9.25;9.25;;;;;16.25;41.27;99701.13;5016394;28;45354;-49
2022/04/22 01:58:26;;;;;;;;;11.75;10.00;;;;;16.27;41.67;99698.06;5016219;28;45307;-48
2022/04/22 02:00:52;;;;;;;;;5.25;5.25;;;;;16.16;41.83;99688.91;5017135;28;45865;-52
2022/04/22 02:03:17;;;;;;;;;8.75;7.50;;;;;16.19;41.96;99690.31;5031625;28;46972;-49
2022/04/22 02:05:43;;;;;;;;;9.50;8.25;;;;;16.19;41.84;99698.59;5016584;28;45378;-50
2022/04/22 02:08:09;;;;;;;;;8.00;6.50;;;;;16.07;42.49;99688.63;5016588;28;45300;-48
2022/04/22 02:10:34;;;;;;;;;6.20;6.20;;;;;15.99;42.29;99683.63;5016486;28;45424;-48
2022/04/22 02:13:00;;;;;;;;;7.50;7.00;;;;;15.89;42.17;99669.75;5016735;28;46205;-48
2022/04/22 02:15:26;;;;;;;;;7.25;7.25;;;;;16.01;42.25;99684.19;5031510;28;45365;-48
2022/04/22 02:17:53;;;;;;;;;10.40;8.60;;;;;15.69;42.91;99643.72;5016574;28;45411;-49
2022/04/22 02:20:18;;;;;;;;;7.40;7.40;;;;;15.90;42.63;99690.78;5016423;28;45581;-51
2022/04/22 02:22:44;;;;;;;;;7.25;6.75;;;;;15.85;43.09;99681.38;5016112;28;45469;-50
2022/04/22 02:25:09;;;;;;;;;9.00;9.00;;;;;15.83;42.98;99678.06;5016502;28;45412;-47
2022/04/22 02:30:19;;;;;;;;;9.20;7.00;;;;;15.74;43.26;99687.97;5015449;28;45403;-48
2022/04/22 02:32:46;;;;;;;;;8.75;8.75;;;;;15.27;43.67;99615.13;5015811;28;47530;-49
2022/04/22 02:35:13;;;;;;;;;9.00;7.60;;;;;15.70;42.94;99670.28;5016287;28;45439;-49
2022/04/22 02:37:39;;;;;;;;;6.60;6.60;;;;;15.73;43.07;99675.25;5015762;28;45533;-47
2022/04/22 02:40:05;;;;;;;;;12.00;8.25;;;;;15.71;43.43;99667.22;5016161;28;45583;-50
2022/04/22 02:45:26;;;;;;;;;7.20;6.60;;;;;15.56;43.88;99656.13;5015959;28;45409;-50
2022/04/22 02:47:52;;;;;;;;;9.20;7.20;;;;;15.42;43.93;99650.28;4997362;28;45502;-50
2022/04/22 02:50:18;;;;;;;;;11.20;7.20;;;;;15.50;43.70;99671.03;5026868;28;45568;-48
2022/04/22 02:52:43;;;;;;;;;9.00;7.50;;;;;15.23;43.54;99625.88;5035130;28;45559;-50
2022/04/22 02:55:09;;;;;;;;;7.25;7.25;;;;;15.34;43.71;99657.16;5017959;28;45359;-49
2022/04/22 02:57:34;;;;;;;;;7.50;7.00;;;;;15.48;43.77;99678.78;5035367;28;45483;-47
2022/04/22 03:00:00;;;;;;;;;10.75;8.75;;;;;15.29;43.75;99641.38;5035709;28;45412;-49
2022/04/22 03:02:26;;;;;;;;;8.25;8.00;;;;;15.36;43.98;99673.47;5033517;28;46528;-50
2022/04/22 03:04:52;;;;;;;;;8.25;8.25;;;;;14.97;43.94;99614.72;5035113;28;45304;-47
2022/04/22 03:07:17;;;;;;;;;8.00;6.40;;;;;15.38;43.83;99654.69;5068015;28;45389;-49
2022/04/22 03:09:43;;;;;;;;;9.50;9.00;;;;;15.49;43.44;99661.06;5035684;28;45416;-49
2022/04/22 03:12:09;;;;;;;;;10.75;7.75;;;;;15.51;43.78;99661.63;5035587;28;46260;-48
2022/04/22 03:14:34;;;;;;;;;7.50;6.75;;;;;15.48;44.00;99660.22;5034120;28;45300;-50
2022/04/22 03:17:00;;;;;;;;;9.75;9.75;;;;;15.28;44.53;99653.56;5035409;28;45373;-47
2022/04/22 03:19:25;;;;;;;;;7.25;7.00;;;;;15.12;44.54;99633.31;5035771;28;45488;-49
2022/04/22 03:21:51;;;;;;;;;8.00;8.00;;;;;15.10;44.30;99631.91;5050367;28;46361;-50
2022/04/22 03:24:16;;;;;;;;;10.00;10.00;;;;;15.26;44.16;99658.50;5035597;28;45614;-52
2022/04/22 03:26:42;;;;;;;;;10.50;7.50;;;;;15.18;44.14;99645.22;5035405;28;45762;-49
2022/04/22 03:29:07;;;;;;;;;7.25;7.25;;;;;15.13;44.49;99648.78;5035567;28;45242;-50
2022/04/22 03:31:33;;;;;;;;;8.00;8.00;;;;;15.17;44.51;99658.19;5035209;28;46494;-51
2022/04/22 03:33:58;;;;;;;;;10.25;9.00;;;;;15.16;44.39;99653.75;5026786;28;45445;-52
2022/04/22 03:36:23;;;;;;;;;7.75;7.75;;;;;15.06;44.50;99639.91;5015510;28;45219;-49
2022/04/22 03:38:49;;;;;;;;;11.50;8.75;;;;;15.14;44.66;99657.88;5015674;28;45516;-49
2022/04/22 03:41:15;;;;;;;;;7.00;7.00;;;;;15.05;44.76;99657.56;5014697;28;45508;-50
2022/04/22 03:43:41;;;;;;;;;8.50;7.50;;;;;15.04;44.60;99655.91;5015362;28;45361;-49
2022/04/22 03:46:06;;;;;;;;;7.00;6.00;;;;;14.80;45.11;99637.00;5015259;28;45374;-50
2022/04/22 03:48:32;;;;;;;;;8.25;8.00;;;;;14.82;45.21;99654.13;5015569;28;45317;-49
2022/04/22 03:50:57;;;;;;;;;7.00;6.75;;;;;14.85;45.01;99638.97;4989654;28;45915;-49
2022/04/22 03:53:23;;;;;;;;;9.50;8.00;;;;;14.93;45.09;99643.97;5045292;28;45364;-51
2022/04/22 03:55:48;;;;;;;;;7.25;7.25;;;;;14.92;45.40;99647.84;5032620;28;45257;-52
2022/04/22 03:58:15;;;;;;;;;7.75;7.75;;;;;14.80;45.39;99648.06;5034696;28;45543;-49
2022/04/22 04:00:42;;;;;;;;;9.00;7.40;;;;;14.72;45.60;99643.81;5033281;28;45412;-49
2022/04/22 04:03:11;;;;;;;;;7.40;7.40;;;;;14.50;45.34;99613.59;5034344;28;45479;-48
2022/04/22 04:05:38;;;;;;;;;8.40;8.40;;;;;14.80;45.53;99649.97;5034935;28;45743;-49
2022/04/22 04:08:04;;;;;;;;;9.20;8.20;;;;;14.72;45.43;99641.06;5066946;28;45652;-49
2022/04/22 04:15:58;;;;;;;;;7.00;7.00;;;;;14.58;46.07;99637.13;5065723;28;45300;-48
2022/04/22 04:18:24;;;;;;;;;7.75;7.75;;;;;14.64;45.43;99641.56;5036687;28;45551;-50
2022/04/22 04:23:33;;;;;;;;;7.40;7.40;;;;;14.35;45.71;99603.25;5037516;28;45488;-48
2022/04/22 04:25:59;;;;;;;;;12.25;9.25;;;;;14.30;46.07;99597.72;5038164;28;45353;-49
2022/04/22 04:28:27;;;;;;;;;7.40;7.20;;;;;14.52;46.16;99632.66;5037597;28;45333;-48
2022/04/22 04:30:53;;;;;;;;;7.40;7.40;;;;;14.63;45.53;99631.63;5037841;28;45471;-49
2022/04/22 04:33:19;;;;;;;;;12.40;10.40;;;;;14.62;45.61;99635.50;5033916;28;45504;-48
2022/04/22 04:35:46;;;;;;;;;8.25;8.25;;;;;14.48;45.73;99626.84;5017860;28;45432;-48
2022/04/22 04:38:13;;;;;;;;;8.40;8.40;;;;;14.52;46.16;99638.19;5017824;28;45427;-48
2022/04/22 04:40:38;;;;;;;;;12.20;9.80;;;;;14.42;46.08;99623.22;5017450;28;45422;-51
2022/04/22 04:43:05;;;;;;;;;9.50;9.25;;;;;14.38;46.64;99622.06;5016022;28;45434;-48
2022/04/22 04:45:32;;;;;;;;;7.00;7.00;;;;;14.37;46.47;99635.03;5017520;28;45421;-49
2022/04/22 04:47:57;;;;;;;;;8.00;8.00;;;;;14.48;46.28;99635.13;5016588;28;45350;-48
2022/04/22 04:50:23;;;;;;;;;11.50;8.25;;;;;14.47;45.85;99631.50;5015877;28;46290;-50
2022/04/22 04:52:48;;;;;;;;;8.25;8.25;;;;;14.23;46.10;99606.22;5016245;28;45542;-48
2022/04/22 04:55:14;;;;;;;;;8.25;8.00;;;;;14.32;45.99;99601.88;5007976;28;45318;-49
2022/04/22 04:57:41;;;;;;;;;9.50;8.00;;;;;14.43;46.64;99637.84;5014254;28;45439;-48
2022/04/22 05:00:08;;;;;;;;;10.80;9.40;;;;;14.45;46.31;99630.09;5031058;28;46607;-47
2022/04/22 05:02:34;;;;;;;;;9.20;7.20;;;;;14.37;46.42;99628.69;5012877;28;45402;-48
2022/04/22 05:05:00;;;;;;;;;12.00;10.20;;;;;14.26;46.72;99613.16;5017372;28;45842;-50
2022/04/22 05:07:26;;;;;;;;;11.00;7.25;;;;;14.26;46.84;99625.03;5009062;28;45884;-48
2022/04/22 05:09:52;;;;;;;;;8.75;8.75;;;;;14.18;47.29;99618.06;5015656;28;47212;-50
2022/04/22 05:12:17;;;;;;;;;15.50;13.00;;;;;14.16;46.83;99613.91;5013478;28;45429;-49
2022/04/22 05:14:46;;;;;;;;;10.75;10.75;;;;;14.27;46.78;99618.41;5015618;28;45511;-48
2022/04/22 05:17:11;;;;;;;;;9.80;8.80;;;;;14.39;46.72;99618.22;5017323;28;45591;-49
2022/04/22 05:19:37;;;;;;;;;9.50;8.00;;;;;14.31;47.24;99610.44;5015706;28;45373;-49
2022/04/22 05:22:02;;;;;;;;;12.75;12.75;;;;;14.36;46.80;99616.00;5016914;28;45336;-52
2022/04/22 05:24:28;;;;;;;;;10.75;10.75;;;;;14.36;46.89;99610.47;5015137;28;45780;-48
2022/04/22 05:26:53;;;;;;;;;9.50;8.25;;;;;14.42;46.83;99620.44;5015916;28;46073;-51
2022/04/22 05:34:47;;;;;;;;;13.80;12.60;;;;;14.30;47.07;99620.63;5016585;28;45361;-50
2022/04/22 05:37:13;;;;;;;;;9.50;9.25;;;;;14.28;47.40;99620.06;5016986;28;45480;-49
2022/04/22 05:39:38;;;;;;;;;11.75;11.75;;;;;14.21;47.53;99622.22;5015409;28;45813;-47
2022/04/22 05:42:04;;;;;;;;;12.25;11.25;;;;;14.20;47.81;99618.63;5016558;28;45286;-49
2022/04/22 05:44:30;;;;;;;;;10.50;10.50;;;;;14.22;47.77;99616.44;5016662;28;45287;-51
2022/04/22 05:46:55;;;;;;;;;10.75;9.75;;;;;14.20;47.49;99604.81;5016503;28;45562;-49
2022/04/22 05:49:21;;;;;;;;;13.00;11.00;;;;;14.38;47.58;99619.31;5016543;28;46270;-50
2022/04/22 05:51:46;;;;;;;;;10.00;10.00;;;;;14.04;47.53;99579.03;5016474;28;45304;-50
2022/04/22 05:54:12;;;;;;;;;13.00;9.00;;;;;14.36;47.65;99619.56;5015426;28;45650;-48
2022/04/22 05:56:37;;;;;;;;;14.25;11.25;;;;;14.44;47.04;99620.16;5016482;28;45406;-48
2022/04/22 05:59:03;;;;;;;;;16.00;13.25;;;;;14.41;47.26;99620.72;5016329;28;46375;-49
2022/04/22 06:01:29;;;;;;;;;12.25;11.50;;;;;14.22;47.35;99605.41;5016776;28;45726;-49
2022/04/22 06:03:55;;;;;;;;;11.40;11.00;;;;;14.22;48.45;99623.88;5014806;28;45454;-48
2022/04/22 06:06:20;;;;;;;;;13.75;11.00;;;;;14.22;47.69;99643.19;5015660;28;45812;-47
2022/04/22 06:11:30;;;;;;;;;10.40;8.80;;;;;14.06;48.65;99642.22;5016354;28;45362;-52
2022/04/22 06:13:55;;;;;;;;;12.75;11.50;;;;;14.15;48.34;99637.88;5016159;28;45319;-48
2022/04/22 06:16:21;;;;;;;;;11.75;10.75;;;;;14.18;48.32;99640.13;5016450;28;45341;-48
2022/04/22 06:18:47;;;;;;;;;14.25;14.25;;;;;14.08;48.76;99629.00;5015908;28;45552;-51
2022/04/22 06:21:12;;;;;;;;;12.75;9.75;;;;;14.12;48.60;99626.53;5015897;28;45405;-49
2022/04/22 06:23:38;;;;;;;;;12.75;12.25;;;;;14.26;48.79;99624.19;5016351;28;45275;-53
2022/04/22 06:26:04;;;;;;;;;11.60;11.40;;;;;14.21;48.34;99619.47;4982631;28;45398;-50
2022/04/22 06:28:30;;;;;;;;;11.00;11.00;;;;;14.27;48.25;99628.59;5012411;28;45883;-50
2022/04/22 06:30:55;;;;;;;;;16.00;12.25;;;;;14.22;48.62;99623.88;5048088;28;45484;-50
2022/04/22 06:33:21;;;;;;;;;13.00;10.25;;;;;14.18;48.43;99619.97;5016099;28;45315;-48
2022/04/22 06:35:47;;;;;;;;;15.25;13.75;;;;;14.22;48.43;99616.44;5046995;28;45652;-48
2022/04/22 06:38:14;;;;;;;;;16.00;12.25;;;;;14.23;48.82;99620.00;5015687;28;46462;-50
2022/04/22 06:46:09;;;;;;;;;16.40;16.20;;;;;14.04;49.09;99616.84;5015731;28;45417;-48
2022/04/22 06:48:35;;;;;;;;;15.00;14.75;;;;;14.18;49.03;99622.72;5014598;28;45418;-50
2022/04/22 06:51:01;;;;;;;;;14.25;13.25;;;;;14.20;48.85;99624.13;5014683;28;45409;-47
2022/04/22 06:53:27;;;;;;;;;14.20;14.00;;;;;14.21;48.83;99624.97;5016056;28;45419;-49
2022/04/22 06:55:53;;;;;;;;;12.00;12.00;;;;;14.26;48.45;99622.25;5016147;28;45386;-49
2022/04/22 06:58:19;;;;;;;;;13.00;12.00;;;;;14.31;48.81;99619.53;5014889;28;46851;-46
2022/04/22 07:00:46;;;;;;;;;18.00;15.40;;;;;14.18;48.54;99590.47;5015271;28;45275;-47
2022/04/22 07:03:12;;;;;;;;;17.00;16.20;;;;;14.41;48.32;99621.53;5014021;28;45458;-50
2022/04/22 07:05:39;;;;;;;;;15.20;13.00;;;;;14.48;48.10;99624.88;5014226;28;45422;-48
2022/04/22 07:08:06;;;;;;;;;21.40;18.80;;;;;14.50;48.01;99621.88;5013728;28;46931;-49
2022/04/22 07:10:33;;;;;;;;;15.20;14.20;;;;;14.54;48.24;99625.78;5014475;28;45503;-52
2022/04/22 07:12:59;;;;;;;;;11.60;10.80;;;;;14.52;48.18;99603.13;5014026;28;45385;-49
2022/04/22 07:15:25;;;;;;;;;11.80;11.60;;;;;14.60;48.12;99607.28;5014167;28;45401;-48
2022/04/22 07:17:50;;;;;;;;;13.20;12.20;;;;;14.67;47.41;99618.13;5014914;28;46790;-49
2022/04/22 07:20:17;;;;;;;;;16.50;14.00;;;;;14.62;47.82;99610.66;5015075;28;45431;-52
2022/04/22 07:22:45;;;;;;;;;16.80;16.20;;;;;14.51;47.58;99579.34;5014843;28;45262;-48
2022/04/22 07:25:11;;;;;;;;;14.60;14.00;;;;;14.59;47.63;99611.16;5015587;28;45481;-49
2022/04/22 07:27:38;;;;;;;;;16.60;14.60;;;;;14.66;47.90;99619.22;5008136;28;45957;-53
2022/04/22 07:30:07;;;;;;;;;17.00;14.20;;;;;14.74;47.77;99624.25;5042215;28;45935;-53
2022/04/22 07:32:35;;;;;;;;;17.20;15.40;;;;;14.63;47.52;99591.03;5013544;28;45188;-49
2022/04/22 07:35:00;;;;;;;;;14.80;14.40;;;;;14.88;47.31;99619.06;5015090;28;45523;-49
2022/04/22 07:37:26;;;;;;;;;14.25;13.25;;;;;14.77;47.07;99609.91;5046776;28;46356;-49
2022/04/22 07:39:52;;;;;;;;;16.50;16.50;;;;;14.91;47.17;99613.03;5030754;28;45488;-50
2022/04/22 07:42:19;;;;;;;;;13.25;11.75;;;;;14.94;47.52;99612.47;5014599;28;45256;-50
2022/04/22 07:47:33;;;;;;;;;22.20;19.80;;;;;14.95;46.89;99592.06;5015882;28;46022;-48
2022/04/22 07:50:02;;;;;;;;;17.00;15.40;;;;;15.10;47.35;99610.63;5018112;28;45390;-49
2022/04/22 07:52:28;;;;;;;;;16.60;15.40;;;;;14.97;47.25;99595.38;5017916;28;45379;-50
2022/04/22 07:54:53;;;;;;;;;21.00;16.00;;;;;15.10;47.02;99612.56;5018399;28;45340;-52
2022/04/22 07:57:21;;;;;;;;;21.75;17.75;;;;;15.16;46.80;99612.31;5016689;28;47325;-49
2022/04/22 07:59:47;;;;;;;;;24.00;21.20;;;;;15.25;47.02;99606.25;5016415;28;45380;-49
2022/04/22 08:02:12;;;;;;;;;20.00;18.75;;;;;15.36;46.67;99609.91;5018462;28;45288;-47
2022/04/22 08:04:38;;;;;;;;;19.00;18.50;;;;;15.35;46.01;99605.44;5009905;28;45420;-50
2022/04/22 08:07:05;;;;;;;;;16.00;13.75;;;;;15.41;45.97;99610.72;5017534;28;46256;-49
2022/04/22 08:09:31;;;;;;;;;17.80;15.40;;;;;15.42;46.40;99611.56;5014571;28;45549;-51
2022/04/22 08:11:56;;;;;;;;;17.50;17.50;;;;;15.35;45.97;99614.59;5016913;28;45395;-47
2022/04/22 08:14:23;;;;;;;;;21.75;17.75;;;;;15.45;46.34;99608.25;5016967;28;46037;-53
2022/04/22 08:16:49;;;;;;;;;15.20;12.40;;;;;15.53;45.98;99615.19;5017246;28;45349;-52
2022/04/22 08:19:15;;;;;;;;;22.00;18.75;;;;;15.22;45.46;99551.53;5017336;28;45433;-49
2022/04/22 08:21:40;;;;;;;;;21.25;17.75;;;;;15.63;45.37;99600.56;5016901;28;45417;-49
2022/04/22 08:24:10;;;;;;;;;16.75;15.75;;;;;15.62;45.33;99604.44;5018103;28;45351;-48
2022/04/22 08:26:35;;;;;;;;;17.00;15.60;;;;;15.55;44.66;99611.06;5016323;28;46450;-49
2022/04/22 08:29:01;;;;;;;;;16.75;12.75;;;;;15.45;44.87;99589.75;5016246;28;45492;-51
2022/04/22 08:31:26;;;;;;;;;21.25;20.75;;;;;15.58;45.30;99580.09;5018248;28;45446;-52
2022/04/22 08:33:55;;;;;;;;;21.00;17.25;;;;;15.70;45.46;99595.59;5016505;28;45298;-47
2022/04/22 08:36:24;;;;;;;;;12.00;11.40;;;;;15.77;44.56;99579.56;5017259;28;45683;-51
2022/04/22 08:38:50;;;;;;;;;18.60;15.00;;;;;15.72;45.19;99562.94;5016213;28;45418;-49
2022/04/22 08:41:15;;;;;;;;;22.50;19.50;;;;;15.91;44.54;99584.53;5016355;28;45521;-50
2022/04/22 08:43:41;;;;;;;;;15.75;14.50;;;;;15.98;44.43;99582.34;4991661;27;45426;-51
2022/04/22 08:49:58;;;;;;;;;14.60;14.40;;;;;16.02;43.55;99585.41;5036328;28;46736;-48
2022/04/22 08:51:38;;;;;;;;;14.20;12.40;;;;;16.00;43.33;99582.91;5036937;28;45397;-52
2022/04/22 08:54:05;;;;;;;;;13.20;11.20;;;;;15.92;43.22;99545.56;5019906;28;45419;-50
2022/04/22 08:56:33;;;;;;;;;12.80;11.60;;;;;16.18;42.70;99556.63;5000331;28;46694;-49
2022/04/22 08:59:00;;;;;;;;;11.60;9.20;;;;;16.27;42.42;99573.47;5054481;28;45393;-50
2022/04/22 09:01:26;;;;;;;;;11.60;10.40;;;;;16.39;42.41;99571.25;5057566;28;45472;-47
2022/04/22 09:03:52;;;;;;;;;9.75;8.50;;;;;16.42;42.09;99580.13;5057640;28;45470;-48
2022/04/22 09:06:19;;;;;;;;;11.00;11.00;;;;;16.43;41.13;99568.75;5056992;28;45621;-48
2022/04/22 09:08:45;;;;;;;;;12.00;10.40;;;;;16.42;41.09;99569.03;5055856;28;45386;-49
2022/04/22 09:11:10;;;;;;;;;10.50;8.50;;;;;16.62;41.36;99568.16;5053998;28;45410;-49
2022/04/22 09:13:37;;;;;;;;;10.75;10.75;;;;;16.70;41.06;99572.28;5056216;28;45576;-48
2022/04/22 09:16:02;;;;;;;;;10.20;9.00;;;;;16.72;41.34;99551.50;5056659;28;45723;-50
2022/04/22 09:18:30;;;;;;;;;10.25;10.25;;;;;16.94;40.77;99553.09;5056906;28;45432;-49
2022/04/22 09:21:02;;;;;;;;;10.20;9.60;;;;;17.06;40.76;99566.63;5057262;28;45431;-48
2022/04/22 09:23:32;;;;;;;;;11.20;10.20;;;;;17.10;40.86;99569.66;5046140;28;45972;-51
2022/04/22 09:25:58;;;;;;;;;11.60;8.80;;;;;17.14;40.47;99562.44;5037321;28;45971;-48
2022/04/22 09:28:23;;;;;;;;;9.20;9.20;;;;;17.16;40.26;99557.44;5036672;28;45350;-50
2022/04/22 09:31:02;;;;;;;;;12.00;11.00;;;;;17.16;39.81;99563.81;5036885;28;45211;-53
2022/04/22 09:33:42;;;;;;;;;9.20;8.60;;;;;17.22;39.35;99555.50;5036926;28;45400;-51
2022/04/22 09:44:24;;;;;;;;;6.60;6.00;;;;;17.36;40.07;99548.19;5027648;28;45584;-50
2022/04/22 09:47:08;;;;;;;;;8.00;8.00;;;;;17.38;39.20;99562.59;5043803;28;46191;-51
2022/04/22 09:49:40;;;;;;;;;10.00;8.80;;;;;17.33;39.19;99557.91;5055910;28;45425;-48
2022/04/22 09:52:06;;;;;;;;;11.00;10.00;;;;;17.42;39.48;99554.53;5057038;28;45401;-48
2022/04/22 09:54:31;;;;;;;;;11.00;10.00;;;;;17.55;39.48;99541.97;5055217;28;45614;-48
2022/04/22 09:56:57;;;;;;;;;8.00;8.00;;;;;17.66;39.15;99549.09;5056735;28;45467;-48
2022/04/22 09:59:24;;;;;;;;;10.20;10.20;;;;;17.75;39.28;99540.97;5054307;28;45526;-47
2022/04/22 10:01:50;;;;;;;;;10.00;9.80;;;;;17.77;37.93;99544.28;5055166;28;45342;-53
2022/04/22 10:04:22;;;;;;;;;7.75;6.50;;;;;17.79;38.58;99533.75;5056572;28;45337;-48
2022/04/22 10:06:47;;;;;;;;;7.80;7.80;;;;;17.88;37.65;99528.41;5054848;28;45884;-50
2022/04/22 10:09:16;;;;;;;;;10.50;8.00;;;;;18.00;37.72;99531.59;5046570;28;45971;-55
2022/04/22 10:11:48;;;;;;;;;10.40;9.00;;;;;18.07;37.75;99527.69;5046624;28;46027;-53
2022/04/22 10:14:15;;;;;;;;;7.00;6.80;;;;;18.15;37.15;99527.06;5055470;28;45449;-51
2022/04/22 10:16:41;;;;;;;;;7.00;4.60;;;;;18.05;37.49;99516.88;5054648;28;46548;-50
2022/04/22 10:19:07;;;;;;;;;8.50;6.75;;;;;18.15;36.10;99519.56;5055300;28;45284;-48
2022/04/22 10:21:32;;;;;;;;;6.75;5.75;;;;;18.11;36.54;99532.38;5054241;28;45331;-47
2022/04/22 10:23:58;;;;;;;;;9.50;9.50;;;;;18.19;36.67;99533.69;5040607;28;45505;-49
2022/04/22 10:26:26;;;;;;;;;8.60;8.60;;;;;18.23;36.17;99531.13;5035856;28;45725;-50
2022/04/22 10:28:52;;;;;;;;;8.20;8.20;;;;;18.27;35.83;99533.06;5014545;28;45545;-48
2022/04/22 10:31:18;;;;;;;;;8.80;8.00;;;;;18.29;36.50;99516.91;5036079;28;45486;-49
2022/04/22 10:33:44;;;;;;;;;9.00;7.00;;;;;18.46;36.39;99523.94;5036256;28;45793;-51
2022/04/22 10:36:18;;;;;;;;;5.00;5.00;;;;;18.55;35.71;99519.41;5016896;28;47437;-52
2022/04/22 10:38:47;;;;;;;;;8.20;5.20;;;;;18.63;35.14;99514.34;5035839;28;45356;-52
2022/04/22 10:41:19;;;;;;;;;8.80;7.80;;;;;18.65;35.45;99520.41;5034508;28;45312;-53
2022/04/22 10:49:43;;;;;;;;;4.80;4.80;;;;;18.84;35.80;99517.69;5014671;28;46064;-49
2022/04/22 10:52:11;;;;;;;;;9.20;9.20;;;;;18.82;35.49;99503.25;5016077;28;45357;-49
2022/04/22 10:54:59;;;;;;;;;36.80;30.80;;;;;18.91;35.46;99511.75;5014675;28;45271;-48
2022/04/22 10:57:27;;;;;;;;;13.60;13.60;;;;;19.05;35.34;99509.91;5015270;28;46348;-51
2022/04/22 11:00:08;;;;;;;;;16.20;16.00;;;;;19.14;35.24;99501.75;5023647;28;45450;-48
2022/04/22 11:02:54;;;;;;;;;16.40;16.40;;;;;19.08;34.97;99484.31;5035673;28;45467;-56
2022/04/22 11:05:25;;;;;;;;;11.00;9.00;;;;;19.28;35.13;99506.56;5017950;28;45508;-51
2022/04/22 11:07:50;;;;;;;;;48.00;40.20;;;;;19.32;34.95;99491.75;5034798;28;45310;-51
2022/04/22 11:10:18;;;;;;;;;18.25;16.50;;;;;19.41;34.78;99494.66;5035410;28;45294;-51
2022/04/22 11:12:51;;;;;;;;;10.00;9.00;;;;;19.39;34.45;99491.38;5017093;28;45470;-51
2022/04/22 11:15:41;;;;;;;;;14.20;11.80;;;;;19.43;34.39;99491.59;5015771;28;45378;-50
2022/04/22 11:18:10;;;;;;;;;15.80;14.80;;;;;19.56;34.25;99496.38;5014911;28;46648;-51
2022/04/22 11:20:37;;;;;;;;;9.80;9.00;;;;;19.67;33.56;99490.63;5015328;28;45379;-49
2022/04/22 11:23:05;;;;;;;;;8.00;8.00;;;;;19.66;33.52;99502.91;5013564;28;45412;-51
2022/04/22 11:25:30;;;;;;;;;28.80;25.40;;;;;19.61;33.86;99492.69;5035154;28;45298;-53
2022/04/22 11:27:56;;;;;;;;;8.75;8.50;;;;;19.61;33.86;99493.53;5033678;28;46287;-47
2022/04/22 11:30:22;;;;;;;;;9.25;8.75;;;;;19.63;33.93;99488.47;5035074;28;45447;-48
2022/04/22 11:32:49;;;;;;;;;7.00;7.00;;;;;19.71;33.21;99483.34;5034094;28;45455;-47
2022/04/22 11:35:24;;;;;;;;;6.20;6.20;;;;;19.76;33.58;99486.84;5030990;28;45638;-47
2022/04/22 11:38:00;;;;;;;;;7.00;6.40;;;;;19.88;33.16;99477.19;5015014;28;45733;-51
2022/04/22 11:40:25;;;;;;;;;8.80;7.00;;;;;20.06;33.40;99475.50;5014835;28;45233;-50
2022/04/22 11:42:54;;;;;;;;;7.25;7.00;;;;;20.11;32.94;99471.81;5015102;28;45280;-48
2022/04/22 11:45:20;;;;;;;;;6.60;6.40;;;;;20.14;33.30;99472.03;5005525;28;45523;-49
2022/04/22 11:47:46;;;;;;;;;7.00;7.00;;;;;20.21;32.90;99477.19;5013967;28;45552;-49
2022/04/22 11:50:20;;;;;;;;;8.00;8.00;;;;;20.04;32.99;99458.28;5013678;28;45452;-49
2022/04/22 11:52:54;;;;;;;;;7.20;7.20;;;;;20.15;33.41;99468.13;5014054;28;45426;-50
2022/04/22 11:55:20;;;;;;;;;7.60;6.20;;;;;20.18;33.43;99458.31;5014730;28;45554;-52
2022/04/22 11:57:45;;;;;;;;;6.20;6.20;;;;;20.28;34.53;99462.88;5014876;28;46065;-50
2022/04/22 12:05:47;;;;;;;;;8.00;7.60;;;;;20.25;32.80;99407.75;5000060;28;45464;-47
2022/04/22 12:08:14;;;;;;;;;7.20;7.20;;;;;20.70;32.68;99460.03;5014842;28;45588;-48
2022/04/22 12:10:39;;;;;;;;;9.20;9.00;;;;;20.85;32.76;99445.81;5013392;28;45410;-51
2022/04/22 12:13:06;;;;;;;;;5.50;5.50;;;;;20.85;32.26;99440.25;5025132;28;45432;-49
2022/04/22 12:15:33;;;;;;;;;7.80;6.60;;;;;20.95;32.22;99449.50;5033676;28;45494;-51
2022/04/22 12:17:59;;;;;;;;;4.80;4.80;;;;;21.01;32.32;99447.44;5016676;28;45389;-50
2022/04/22 12:20:25;;;;;;;;;6.75;6.25;;;;;21.07;32.46;99447.00;5033284;28;45357;-48
2022/04/22 12:22:52;;;;;;;;;7.00;5.60;;;;;21.11;32.13;99441.63;5033776;28;45730;-48